Time;durP1;ratioP1;P1;durP2;ratioP2;P2;SDS_P1;SDS_P2;PMS_P1;PMS_P2;Temp;Humidity;BMP_temperature;BMP_pressure;BME280_temperature;BME280_humidity;BME280_pressure;Samples;Min_cycle;Max_cycle;Signal;HPM_P1;HPM_P2
2022/08/10 00:02:40;;;;;;;1.05;1.05;;;;;;;12.10;100.00;102080.81;5017992;28;20041;-48
2022/08/10 00:05:06;;;;;;;2.00;1.77;;;;;;;12.14;100.00;102071.53;5011822;28;20034;-49
2022/08/10 00:07:31;;;;;;;1.45;0.85;;;;;;;12.14;100.00;102076.84;5014910;28;20022;-51
2022/08/10 00:09:57;;;;;;;2.15;1.77;;;;;;;12.09;100.00;102072.03;5021014;28;20026;-51
2022/08/10 00:12:22;;;;;;;1.88;0.77;;;;;;;11.99;100.00;102066.00;5012477;28;20091;-51
2022/08/10 00:14:48;;;;;;;1.85;0.52;;;;;;;11.92;100.00;102080.94;5021207;28;20083;-48
2022/08/10 00:17:13;;;;;;;6.90;0.95;;;;;;;11.94;100.00;102070.97;5034545;28;20154;-51
2022/08/10 00:19:39;;;;;;;0.52;0.43;;;;;;;11.94;100.00;102069.16;5025313;28;20539;-53
2022/08/10 00:22:04;;;;;;;0.68;0.68;;;;;;;11.88;100.00;102061.84;5025365;28;20029;-51
2022/08/10 00:24:29;;;;;;;1.10;0.60;;;;;;;11.86;100.00;102065.59;5032996;28;20097;-50
2022/08/10 00:26:55;;;;;;;7.25;2.00;;;;;;;11.82;100.00;102062.41;5020726;28;20536;-48
2022/08/10 00:29:20;;;;;;;0.77;0.73;;;;;;;11.77;100.00;102067.38;5015696;28;20564;-50
2022/08/10 00:31:45;;;;;;;5.07;1.55;;;;;;;11.76;100.00;102073.69;5038581;28;20056;-49
2022/08/10 00:34:11;;;;;;;1.33;0.73;;;;;;;11.70;100.00;102069.03;5022087;28;20048;-52
2022/08/10 00:36:36;;;;;;;2.28;0.50;;;;;;;11.68;100.00;102065.69;5026036;28;20052;-51
2022/08/10 00:39:01;;;;;;;0.43;0.40;;;;;;;11.70;100.00;102063.72;5027562;28;20076;-49
2022/08/10 00:41:27;;;;;;;0.40;0.38;;;;;;;11.72;100.00;102078.53;5030046;28;20048;-51
2022/08/10 00:43:52;;;;;;;3.30;0.85;;;;;;;11.73;100.00;102071.38;5026074;28;20032;-50
2022/08/10 00:46:17;;;;;;;0.40;0.40;;;;;;;11.72;100.00;102073.19;5035556;28;20048;-48
2022/08/10 00:48:43;;;;;;;5.45;0.35;;;;;;;11.66;100.00;102073.00;5029547;28;20033;-48
2022/08/10 00:51:08;;;;;;;2.88;0.30;;;;;;;11.58;100.00;102068.47;5034145;28;20041;-48
2022/08/10 00:53:34;;;;;;;0.43;0.43;;;;;;;11.55;100.00;102069.63;5025705;28;20142;-48
2022/08/10 00:56:00;;;;;;;0.90;0.57;;;;;;;11.51;100.00;102068.28;5031248;28;20029;-48
2022/08/10 00:58:25;;;;;;;1.45;0.63;;;;;;;11.50;100.00;102071.91;5028010;28;20422;-50
2022/08/10 01:00:51;;;;;;;1.02;0.50;;;;;;;11.49;100.00;102067.63;5024888;28;20030;-50
2022/08/10 01:03:16;;;;;;;1.05;0.50;;;;;;;11.47;100.00;102064.28;5032347;28;20079;-54
2022/08/10 01:05:56;;;;;;;0.90;0.52;;;;;;;11.43;100.00;102062.91;5028033;28;20023;-48
2022/08/10 01:08:30;;;;;;;1.00;0.68;;;;;;;11.37;100.00;102062.72;5020754;28;20040;-53
2022/08/10 01:11:09;;;;;;;2.85;0.70;;;;;;;11.29;100.00;102060.84;5030219;28;20144;-49
2022/08/10 01:14:00;;;;;;;1.50;0.50;;;;;;;11.22;100.00;102054.50;5035625;28;20065;-52
2022/08/10 01:16:40;;;;;;;1.45;0.50;;;;;;;11.12;100.00;102060.75;5030502;28;20086;-50
2022/08/10 01:19:11;;;;;;;0.73;0.73;;;;;;;11.07;100.00;102057.72;5018471;28;20117;-53
2022/08/10 01:21:46;;;;;;;1.70;0.65;;;;;;;11.05;100.00;102058.91;5025090;28;20030;-50
2022/08/10 01:24:26;;;;;;;0.57;0.57;;;;;;;11.00;100.00;102050.56;5026361;28;20092;-50
2022/08/10 01:27:28;;;;;;;2.35;0.47;;;;;;;10.99;100.00;102060.31;5028014;28;20052;-50
2022/08/10 01:30:01;;;;;;;2.88;0.63;;;;;;;11.02;100.00;102060.03;5021848;28;20107;-53
2022/08/10 01:32:52;;;;;;;6.25;1.20;;;;;;;11.01;100.00;102053.03;5029458;28;20419;-50
2022/08/10 01:35:21;;;;;;;;;;;;;;;11.01;100.00;102055.69;5036421;28;20041;-51
2022/08/10 01:38:14;;;;;;;1.13;0.73;;;;;;;11.01;100.00;102052.22;5016308;28;20311;-53
2022/08/10 01:40:55;;;;;;;3.63;0.55;;;;;;;10.95;100.00;102048.38;5035729;28;20041;-53
2022/08/10 01:43:26;;;;;;;1.27;0.70;;;;;;;10.91;100.00;102053.13;5022607;28;20069;-54
2022/08/10 01:45:55;;;;;;;0.75;0.73;;;;;;;10.86;100.00;102042.16;5028977;28;20049;-52
2022/08/10 01:48:30;;;;;;;3.85;0.50;;;;;;;10.80;100.00;102044.59;5030100;28;20146;-53
2022/08/10 01:51:20;;;;;;;1.13;0.50;;;;;;;10.77;100.00;102050.22;5027121;28;20497;-51
2022/08/10 01:54:02;;;;;;;1.65;0.40;;;;;;;10.76;100.00;102046.72;5024284;28;20044;-54
2022/08/10 01:56:31;;;;;;;1.02;1.02;;;;;;;10.76;100.00;102048.53;5035029;28;20382;-53
2022/08/10 01:59:00;;;;;;;2.28;0.52;;;;;;;10.69;100.00;102043.84;5022641;28;20025;-51
2022/08/10 02:01:29;;;;;;;1.13;0.70;;;;;;;10.66;100.00;102038.88;5030269;28;20026;-53
2022/08/10 02:03:58;;;;;;;2.25;0.70;;;;;;;10.65;100.00;102042.50;5030302;28;20041;-53
2022/08/10 02:06:26;;;;;;;1.58;0.90;;;;;;;10.62;100.00;102040.16;5025765;28;20501;-53
2022/08/10 02:08:54;;;;;;;2.95;0.35;;;;;;;10.55;100.00;102041.75;5027774;28;20035;-51
2022/08/10 02:11:22;;;;;;;1.52;0.75;;;;;;;10.47;100.00;102041.66;5021834;28;20064;-54
2022/08/10 02:13:49;;;;;;;0.90;0.50;;;;;;;10.43;100.00;102037.69;5031959;28;20026;-51
2022/08/10 02:16:17;;;;;;;1.48;0.43;;;;;;;10.41;100.00;102044.94;5024515;28;20022;-54
2022/08/10 02:18:44;;;;;;;2.17;0.55;;;;;;;10.42;100.00;102047.41;5026901;28;20374;-50
2022/08/10 02:21:11;;;;;;;0.73;0.43;;;;;;;10.42;100.00;102051.91;5022989;28;20025;-55
2022/08/10 02:23:38;;;;;;;2.08;0.40;;;;;;;10.41;100.00;102050.25;5025826;28;20057;-52
2022/08/10 02:26:07;;;;;;;2.50;0.30;;;;;;;10.39;100.00;102047.72;5023213;28;20069;-52
2022/08/10 02:28:35;;;;;;;0.73;0.57;;;;;;;10.34;100.00;102049.19;5022306;28;20440;-54
2022/08/10 02:31:12;;;;;;;2.90;0.98;;;;;;;10.30;100.00;102047.78;5022203;28;20063;-50
2022/08/10 02:33:41;;;;;;;0.57;0.57;;;;;;;10.31;100.00;102057.44;5025007;28;20121;-50
2022/08/10 02:36:09;;;;;;;0.90;0.90;;;;;;;10.32;100.00;102059.09;5025073;28;20040;-52
2022/08/10 02:38:49;;;;;;;1.00;0.32;;;;;;;10.32;100.00;102054.63;5028856;28;20083;-54
2022/08/10 02:41:30;;;;;;;0.35;0.20;;;;;;;10.30;100.00;102053.09;5022343;28;20029;-53
2022/08/10 02:44:04;;;;;;;2.95;0.68;;;;;;;10.25;100.00;102046.41;5028882;28;20116;-52
2022/08/10 02:46:40;;;;;;;0.50;0.50;;;;;;;10.17;100.00;102043.69;5023731;28;20026;-51
2022/08/10 02:49:11;;;;;;;0.30;0.28;;;;;;;10.05;100.00;102047.53;5011068;28;20030;-53
2022/08/10 02:51:53;;;;;;;1.20;0.60;;;;;;;9.98;100.00;102043.81;5031549;28;20030;-51
2022/08/10 02:54:27;;;;;;;2.20;0.68;;;;;;;9.95;100.00;102044.09;5030051;28;20501;-51
2022/08/10 02:57:01;;;;;;;4.13;0.98;;;;;;;9.92;100.00;102041.75;5025291;28;20555;-52
2022/08/10 02:59:38;;;;;;;1.90;0.47;;;;;;;9.83;100.00;102041.69;5024769;28;20036;-52
2022/08/10 03:02:06;;;;;;;0.55;0.55;;;;;;;9.75;100.00;102038.91;5026071;28;20068;-52
2022/08/10 03:04:36;;;;;;;2.75;0.77;;;;;;;9.72;100.00;102039.19;5025107;28;20029;-48
2022/08/10 03:07:05;;;;;;;1.08;0.50;;;;;;;9.70;100.00;102041.16;5023934;28;20053;-49
2022/08/10 03:09:34;;;;;;;0.40;0.20;;;;;;;9.74;100.00;102036.41;5022808;28;20159;-48
2022/08/10 03:12:00;;;;;;;0.20;0.20;;;;;;;9.80;100.00;102033.16;5016381;28;20486;-50
2022/08/10 03:14:27;;;;;;;0.65;0.50;;;;;;;9.82;100.00;102036.50;5020854;28;20025;-49
2022/08/10 03:16:55;;;;;;;1.42;0.40;;;;;;;9.83;100.00;102031.06;5022733;28;20113;-47
2022/08/10 03:19:22;;;;;;;6.28;0.50;;;;;;;9.83;100.00;102030.22;5022315;28;20100;-49
2022/08/10 03:21:49;;;;;;;0.52;0.43;;;;;;;9.78;100.00;102028.03;5017007;28;20034;-51
2022/08/10 03:24:21;;;;;;;1.08;0.95;;;;;;;9.72;100.00;102031.25;5035309;28;20115;-48
2022/08/10 03:26:48;;;;;;;0.95;0.30;;;;;;;9.69;100.00;102028.91;5021794;28;20030;-51
2022/08/10 03:29:15;;;;;;;0.90;0.68;;;;;;;9.67;100.00;102032.69;5018404;28;20032;-53
2022/08/10 03:31:41;;;;;;;0.40;0.30;;;;;;;9.65;100.00;102026.69;5020074;28;20053;-51
2022/08/10 03:34:07;;;;;;;0.52;0.20;;;;;;;9.61;100.00;102026.16;5023143;28;20049;-49
2022/08/10 03:36:32;;;;;;;2.97;1.02;;;;;;;9.52;100.00;102024.38;5021217;28;20125;-49
2022/08/10 03:38:58;;;;;;;1.33;1.20;;;;;;;9.47;100.00;102029.28;5016026;28;20191;-50
2022/08/10 03:41:33;;;;;;;2.08;0.40;;;;;;;9.43;100.00;102035.88;5023744;28;20505;-49
2022/08/10 03:44:02;;;;;;;1.00;0.30;;;;;;;9.42;100.00;102034.19;5030929;28;20448;-50
2022/08/10 03:46:28;;;;;;;2.38;0.38;;;;;;;9.41;100.00;102028.06;5021849;28;20474;-50
2022/08/10 03:48:56;;;;;;;0.70;0.25;;;;;;;9.36;100.00;102041.72;5024197;28;20026;-50
2022/08/10 03:51:24;;;;;;;0.80;0.70;;;;;;;9.30;100.00;102037.03;5032197;28;20040;-52
2022/08/10 03:53:50;;;;;;;0.77;0.40;;;;;;;9.29;100.00;102038.00;5020954;28;20040;-54
2022/08/10 03:56:15;;;;;;;1.13;0.55;;;;;;;9.28;100.00;102038.97;5021375;28;20029;-51
2022/08/10 03:58:41;;;;;;;1.98;1.00;;;;;;;9.21;100.00;102032.56;5023059;28;20112;-54
2022/08/10 04:01:07;;;;;;;1.35;0.57;;;;;;;9.17;100.00;102034.69;5020315;28;20113;-51
2022/08/10 04:03:32;;;;;;;1.42;0.28;;;;;;;9.16;100.00;102038.31;5030049;28;20029;-53
2022/08/10 04:05:58;;;;;;;3.95;0.40;;;;;;;9.16;100.00;102032.19;5030967;28;20483;-51
2022/08/10 04:08:23;;;;;;;0.90;0.70;;;;;;;9.18;100.00;102027.59;5014253;28;20034;-52
2022/08/10 04:10:49;;;;;;;0.75;0.75;;;;;;;9.17;100.00;102026.75;5035892;28;20406;-53
2022/08/10 04:13:14;;;;;;;2.90;0.43;;;;;;;9.15;100.00;102027.88;5038345;28;20029;-48
2022/08/10 04:15:39;;;;;;;0.38;0.38;;;;;;;9.13;100.00;102024.53;5033382;28;20108;-46
2022/08/10 04:18:05;;;;;;;1.08;0.10;;;;;;;9.09;100.00;102021.34;5029233;28;20047;-47
2022/08/10 04:20:43;;;;;;;1.50;0.40;;;;;;;9.09;100.00;102023.16;5027459;28;20036;-53
2022/08/10 04:23:14;;;;;;;0.30;0.20;;;;;;;9.10;100.00;102028.28;5038133;28;20021;-50
2022/08/10 04:25:40;;;;;;;7.97;1.33;;;;;;;9.10;100.00;102025.66;5029762;28;20178;-47
2022/08/10 04:28:07;;;;;;;0.75;0.30;;;;;;;9.08;100.00;102019.66;5018834;28;20033;-53
2022/08/10 04:30:35;;;;;;;0.55;0.35;;;;;;;9.07;100.00;102023.28;5028414;28;20021;-51
2022/08/10 04:33:02;;;;;;;3.40;0.50;;;;;;;9.07;100.00;102025.13;5013957;28;20157;-52
2022/08/10 04:35:29;;;;;;;0.65;0.35;;;;;;;9.06;100.00;102020.78;5023755;28;20033;-51
2022/08/10 04:37:56;;;;;;;0.50;0.30;;;;;;;9.08;100.00;102024.13;5028682;28;20025;-51
2022/08/10 04:40:22;;;;;;;2.33;0.38;;;;;;;9.08;100.00;102026.78;5025588;28;20025;-52
2022/08/10 04:42:48;;;;;;;5.30;0.75;;;;;;;9.09;100.00;102031.09;5027386;28;20037;-52
2022/08/10 04:45:14;;;;;;;0.73;0.40;;;;;;;9.07;100.00;102036.53;5034076;28;20167;-52
2022/08/10 04:47:39;;;;;;;4.43;0.60;;;;;;;9.05;100.00;102035.00;5023572;28;20037;-48
2022/08/10 04:50:05;;;;;;;0.20;0.20;;;;;;;9.03;100.00;102036.94;5023587;28;20033;-51
2022/08/10 04:52:31;;;;;;;0.50;0.50;;;;;;;9.03;100.00;102036.94;5019574;28;20033;-53
2022/08/10 04:54:56;;;;;;;2.95;1.52;;;;;;;9.04;100.00;102044.75;5039531;28;20668;-52
2022/08/10 04:57:22;;;;;;;3.65;0.40;;;;;;;9.04;100.00;102049.22;5028949;28;20032;-55
2022/08/10 04:59:47;;;;;;;1.05;0.32;;;;;;;9.00;100.00;102051.28;5030277;28;20230;-49
2022/08/10 05:02:13;;;;;;;0.40;0.40;;;;;;;8.97;100.00;102041.00;5026552;28;20044;-54
2022/08/10 05:04:38;;;;;;;0.30;0.30;;;;;;;8.95;100.00;102050.88;5030689;28;20040;-52
2022/08/10 05:07:09;;;;;;;4.45;0.65;;;;;;;8.93;100.00;102053.69;5025661;28;20180;-54
2022/08/10 05:09:36;;;;;;;2.33;0.30;;;;;;;8.92;100.00;102057.28;5016606;28;20083;-55
2022/08/10 05:12:01;;;;;;;0.50;0.20;;;;;;;8.96;100.00;102055.22;5029912;28;20049;-51
2022/08/10 05:14:26;;;;;;;0.88;0.20;;;;;;;8.99;100.00;102056.75;5036189;28;20033;-49
2022/08/10 05:16:52;;;;;;;1.08;0.40;;;;;;;9.00;100.00;102055.75;5026128;28;20029;-54
2022/08/10 05:19:17;;;;;;;0.25;0.25;;;;;;;9.01;100.00;102054.78;5021653;28;20467;-53
2022/08/10 05:21:43;;;;;;;2.28;0.40;;;;;;;9.02;100.00;102056.47;5014504;28;20386;-50
2022/08/10 05:24:09;;;;;;;2.22;0.52;;;;;;;9.02;100.00;102059.09;5017227;28;20033;-50
2022/08/10 05:26:34;;;;;;;1.83;0.65;;;;;;;9.01;100.00;102068.84;5017532;28;20026;-54
2022/08/10 05:28:59;;;;;;;1.35;0.43;;;;;;;9.03;100.00;102060.75;5018159;28;20324;-53
2022/08/10 05:31:26;;;;;;;0.25;0.25;;;;;;;9.05;100.00;102070.22;5020966;28;20044;-53
2022/08/10 05:33:51;;;;;;;2.20;0.60;;;;;;;9.10;100.00;102075.09;5036416;28;20044;-54
2022/08/10 05:36:17;;;;;;;3.22;0.60;;;;;;;9.13;100.00;102072.16;5032388;28;20021;-50
2022/08/10 05:38:44;;;;;;;1.30;0.60;;;;;;;9.18;100.00;102072.56;5023893;28;20374;-52
2022/08/10 05:41:09;;;;;;;0.32;0.20;;;;;;;9.22;100.00;102070.50;5032309;28;20072;-54
2022/08/10 05:43:35;;;;;;;0.40;0.40;;;;;;;9.25;100.00;102073.66;5016250;28;20025;-51
2022/08/10 05:46:00;;;;;;;6.85;1.35;;;;;;;9.31;100.00;102083.69;5014705;28;20029;-52
2022/08/10 05:48:26;;;;;;;3.78;1.38;;;;;;;9.45;100.00;102081.53;5025690;28;20287;-50
2022/08/10 05:50:51;;;;;;;0.55;0.43;;;;;;;9.55;100.00;102080.56;5026783;28;20490;-53
2022/08/10 05:53:17;;;;;;;0.60;0.60;;;;;;;9.60;100.00;102093.34;5021814;28;20036;-51
2022/08/10 05:55:42;;;;;;;0.43;0.40;;;;;;;9.61;100.00;102092.38;5034193;28;20024;-56
2022/08/10 05:58:08;;;;;;;0.30;0.25;;;;;;;9.65;100.00;102087.59;5026680;28;20032;-55
2022/08/10 06:00:37;;;;;;;2.47;0.40;;;;;;;9.68;100.00;102092.59;5009265;28;20590;-55
2022/08/10 06:03:04;;;;;;;3.15;0.77;;;;;;;9.71;100.00;102085.22;5023962;28;20129;-52
2022/08/10 06:05:33;;;;;;;1.13;0.35;;;;;;;9.77;100.00;102084.63;5028782;28;20037;-55
2022/08/10 06:08:08;;;;;;;1.73;1.00;;;;;;;9.88;100.00;102088.06;5026307;28;20391;-50
2022/08/10 06:10:36;;;;;;;0.93;0.60;;;;;;;9.98;100.00;102086.19;5026963;28;20031;-54
2022/08/10 06:15:49;;;;;;;1.55;0.98;;;;;;;10.21;100.00;102083.97;5034278;28;20158;-52
2022/08/10 06:18:15;;;;;;;6.75;1.02;;;;;;;10.26;100.00;102085.19;5022095;28;20058;-52
2022/08/10 06:20:42;;;;;;;5.70;1.55;;;;;;;10.33;100.00;102068.72;5024705;28;20029;-51
2022/08/10 06:23:08;;;;;;;6.65;1.48;;;;;;;10.44;100.00;102077.28;5023005;28;20030;-54
2022/08/10 06:25:34;;;;;;;1.13;0.65;;;;;;;10.58;100.00;102078.56;5027447;28;20394;-50
2022/08/10 06:28:00;;;;;;;1.05;0.70;;;;;;;10.73;100.00;102076.22;5013720;28;20056;-55
2022/08/10 06:30:28;;;;;;;2.63;0.80;;;;;;;10.89;100.00;102075.50;5018717;28;20528;-55
2022/08/10 06:32:55;;;;;;;2.63;0.88;;;;;;;11.08;100.00;102079.81;5020880;28;20041;-54
2022/08/10 06:35:27;;;;;;;3.50;0.60;;;;;;;11.25;100.00;102076.25;5023038;28;20018;-52
2022/08/10 06:37:56;;;;;;;1.60;0.50;;;;;;;11.40;100.00;102073.84;5025206;28;20030;-49
2022/08/10 06:40:26;;;;;;;2.00;1.27;;;;;;;11.60;100.00;102076.28;5023669;28;20071;-51
2022/08/10 06:42:53;;;;;;;3.75;0.85;;;;;;;11.76;100.00;102071.88;5021644;28;20133;-53
2022/08/10 06:45:22;;;;;;;2.92;1.15;;;;;;;11.99;100.00;102074.81;5015374;28;20033;-49
2022/08/10 06:48:05;;;;;;;4.15;1.73;;;;;;;12.32;100.00;102074.06;5019927;28;20105;-54
2022/08/10 06:50:59;;;;;;;3.05;0.80;;;;;;;12.69;100.00;102070.13;5020564;28;20025;-50
2022/08/10 06:53:29;;;;;;;2.00;1.60;;;;;;;13.00;100.00;102070.25;5019910;28;20377;-56
2022/08/10 06:56:01;;;;;;;3.15;1.50;;;;;;;13.40;100.00;102071.19;5017865;28;20430;-52
2022/08/10 06:58:31;;;;;;;;;;;;;;;13.90;100.00;102070.84;5019166;28;20155;-51
2022/08/10 07:01:01;;;;;;;2.17;0.57;;;;;;;14.26;100.00;102069.50;5013057;28;19920;-55
2022/08/10 07:03:37;;;;;;;7.65;1.55;;;;;;;14.50;100.00;102060.47;5020954;28;20503;-56
2022/08/10 07:06:05;;;;;;;5.50;1.20;;;;;;;14.61;100.00;102058.28;5020354;28;20057;-51
2022/08/10 07:08:32;;;;;;;4.82;0.90;;;;;;;14.89;100.00;102055.00;5023611;28;20029;-52
2022/08/10 07:11:00;;;;;;;9.98;1.60;;;;;;;15.25;100.00;102065.00;5022772;28;20110;-53
2022/08/10 07:13:26;;;;;;;3.45;2.22;;;;;;;15.50;100.00;102060.22;5020083;28;20033;-52
2022/08/10 07:15:52;;;;;;;9.48;1.67;;;;;;;15.62;100.00;102056.06;5015934;28;20567;-54
2022/08/10 07:18:19;;;;;;;6.32;0.98;;;;;;;15.87;100.00;102058.44;5017314;28;20101;-50
2022/08/10 07:20:46;;;;;;;2.53;1.10;;;;;;;16.08;100.00;102054.97;5018979;28;20538;-50
2022/08/10 07:23:13;;;;;;;1.02;0.57;;;;;;;16.25;100.00;102052.91;5017815;28;20029;-54
2022/08/10 07:25:41;;;;;;;3.40;2.05;;;;;;;16.58;100.00;102050.56;5012072;28;20057;-55
2022/08/10 07:28:08;;;;;;;7.25;1.35;;;;;;;16.81;100.00;102046.88;5023286;28;20040;-56
2022/08/10 07:30:37;;;;;;;11.63;1.83;;;;;;;17.00;100.00;102043.50;5015730;28;20333;-51
2022/08/10 07:33:05;;;;;;;2.72;0.98;;;;;;;17.16;100.00;102037.81;5024835;28;20029;-52
2022/08/10 07:35:33;;;;;;;3.35;1.15;;;;;;;17.32;100.00;102033.16;5024921;28;20104;-51
2022/08/10 07:38:01;;;;;;;3.72;2.08;;;;;;;17.42;100.00;102025.59;5022848;28;20370;-51
2022/08/10 07:40:28;;;;;;;7.53;1.45;;;;;;;17.62;100.00;102037.22;5022399;28;20061;-54
2022/08/10 07:42:58;;;;;;;1.52;0.40;;;;;;;17.76;100.00;102038.13;5019179;28;20056;-54
2022/08/10 07:45:27;;;;;;;4.07;0.57;;;;;;;17.98;100.00;102024.59;5021037;28;20031;-51
2022/08/10 07:48:04;;;;;;;5.32;1.58;;;;;;;18.04;100.00;102023.78;5024782;28;20411;-53
2022/08/10 07:50:30;;;;;;;0.70;0.50;;;;;;;18.22;100.00;102015.97;5019811;28;20030;-51
2022/08/10 07:53:00;;;;;;;1.15;0.50;;;;;;;18.42;100.00;102002.56;5022587;28;20099;-50
2022/08/10 07:55:27;;;;;;;6.18;1.02;;;;;;;18.63;100.00;101996.16;5024184;28;20164;-49
2022/08/10 07:57:55;;;;;;;2.25;0.40;;;;;;;18.81;100.00;101992.84;5028943;28;20022;-52
2022/08/10 08:00:21;;;;;;;1.67;0.40;;;;;;;18.89;100.00;101992.63;5027673;28;20108;-50
2022/08/10 08:02:52;;;;;;;4.45;0.60;;;;;;;19.07;100.00;101997.34;5024863;28;20029;-54
2022/08/10 08:05:27;;;;;;;4.32;0.50;;;;;;;19.28;100.00;101990.06;5024221;28;20471;-53
2022/08/10 08:07:55;;;;;;;2.22;0.30;;;;;;;19.43;100.00;101981.72;5026879;28;20037;-51
2022/08/10 08:10:23;;;;;;;1.77;0.80;;;;;;;19.63;100.00;101970.88;5019046;28;20094;-55
2022/08/10 08:12:50;;;;;;;3.92;1.02;;;;;;;19.72;100.00;101967.78;5025458;28;20050;-53
2022/08/10 08:15:19;;;;;;;8.68;0.85;;;;;;;19.96;100.00;101959.97;5025106;28;20454;-56
2022/08/10 08:17:47;;;;;;;4.90;1.02;;;;;;;20.17;100.00;101948.81;5021258;28;20363;-50
2022/08/10 08:20:15;;;;;;;2.25;0.15;;;;;;;20.32;100.00;101956.56;5024818;28;20490;-56
2022/08/10 08:22:43;;;;;;;3.05;0.20;;;;;;;20.29;100.00;101954.31;5025284;28;20029;-52
2022/08/10 08:25:10;;;;;;;0.68;0.10;;;;;;;20.33;100.00;101947.44;5004196;28;20029;-51
2022/08/10 08:27:38;;;;;;;3.80;0.15;;;;;;;20.50;100.00;101947.72;5023119;28;20038;-55
2022/08/10 08:30:06;;;;;;;4.10;0.65;;;;;;;20.61;100.00;101949.69;5021205;28;20029;-52
2022/08/10 08:32:36;;;;;;;2.30;0.40;;;;;;;20.79;100.00;101945.38;5025213;28;20041;-56
2022/08/10 08:35:06;;;;;;;6.03;0.10;;;;;;;20.93;100.00;101941.47;5023207;28;21059;-52
2022/08/10 08:37:33;;;;;;;4.07;0.60;;;;;;;21.15;100.00;101938.34;5019914;28;20043;-56
2022/08/10 08:40:00;;;;;;;1.02;0.00;;;;;;;21.27;100.00;101933.81;5021305;28;20025;-52
2022/08/10 08:42:47;;;;;;;5.65;0.40;;;;;;;21.34;100.00;101923.78;5022352;28;20064;-56
2022/08/10 08:45:17;;;;;;;3.58;0.60;;;;;;;21.57;100.00;101920.38;5017540;28;20037;-49
2022/08/10 08:48:01;;;;;;;0.15;0.05;;;;;;;21.75;100.00;101912.22;5026958;28;20043;-53
2022/08/10 08:50:32;;;;;;;0.57;0.10;;;;;;;21.80;100.00;101916.13;5018001;28;20079;-51
2022/08/10 08:52:57;;;;;;;;;;;;;;;21.81;100.00;101901.53;5017425;28;20131;-54
2022/08/10 08:55:44;;;;;;;2.13;0.30;;;;;;;21.93;100.00;101897.81;5017561;28;20377;-56
2022/08/10 08:58:36;;;;;;;0.70;0.00;;;;;;;22.07;100.00;101900.28;5024230;28;20412;-57
2022/08/10 09:01:34;;;;;;;1.40;0.10;;;;;;;22.27;100.00;101895.41;5020019;28;20029;-56
2022/08/10 09:04:36;;;;;;;0.75;0.20;;;;;;;22.38;100.00;101886.50;5021261;28;20045;-58
2022/08/10 09:07:26;;;;;;;0.77;0.00;;;;;;;22.64;100.00;101889.75;5020855;28;20108;-58
2022/08/10 09:10:20;;;;;;;0.77;0.00;;;;;;;22.81;100.00;101887.94;5016892;28;20049;-55
2022/08/10 09:13:05;;;;;;;0.93;0.38;;;;;;;22.85;100.00;101891.00;5016939;28;20128;-57
2022/08/10 09:15:58;;;;;;;4.80;0.20;;;;;;;22.97;100.00;101878.28;5014823;28;20034;-56
2022/08/10 09:18:38;;;;;;;3.13;0.20;;;;;;;22.96;100.00;101882.03;5022346;28;20025;-52
2022/08/10 09:21:27;;;;;;;0.17;0.17;;;;;;;23.27;100.00;101875.38;5015205;28;20026;-48
2022/08/10 09:24:05;;;;;;;3.60;0.60;;;;;;;23.36;100.00;101870.38;5019243;28;20041;-51
2022/08/10 09:26:41;;;;;;;4.15;0.90;;;;;;;23.56;100.00;101869.91;5026555;28;20434;-52
2022/08/10 09:29:11;;;;;;;0.90;0.10;;;;;;;23.65;100.00;101863.06;5022626;28;20064;-51
2022/08/10 09:31:45;;;;;;;0.20;0.00;;;;;;;23.63;100.00;101853.53;5023028;28;20032;-51
2022/08/10 09:34:29;;;;;;;0.68;0.30;;;;;;;23.83;100.00;101858.50;5017613;28;20037;-51
2022/08/10 09:37:13;;;;;;;0.40;0.10;;;;;;;23.88;100.00;101855.84;5010130;28;20021;-48
2022/08/10 09:39:50;;;;;;;1.70;0.20;;;;;;;23.99;100.00;101857.66;5023995;28;20030;-55
2022/08/10 09:42:43;;;;;;;0.40;0.03;;;;;;;24.14;100.00;101851.66;5026599;28;20509;-53
2022/08/10 09:45:19;;;;;;;0.70;0.08;;;;;;;24.43;100.00;101846.91;5027712;28;20029;-54
2022/08/10 09:48:03;;;;;;;0.10;0.00;;;;;;;24.69;100.00;101847.28;5022278;28;20040;-54
2022/08/10 09:50:39;;;;;;;3.40;0.57;;;;;;;24.83;100.00;101843.09;5029817;28;20034;-53
2022/08/10 09:53:09;;;;;;;0.35;0.30;;;;;;;24.86;100.00;101841.75;5025322;28;20442;-51
2022/08/10 09:56:06;;;;;;;0.47;0.13;;;;;;;24.68;100.00;101829.34;5025787;28;20087;-52
2022/08/10 09:58:45;;;;;;;0.20;0.00;;;;;;;24.83;100.00;101831.41;5025170;28;20152;-52
2022/08/10 10:01:48;;;;;;;0.17;0.00;;;;;;;25.05;100.00;101831.41;5021443;28;20017;-52
2022/08/10 10:04:24;;;;;;;3.05;0.00;;;;;;;24.96;100.00;101826.44;5021149;28;20080;-51
2022/08/10 10:07:04;;;;;;;1.67;0.00;;;;;;;25.10;100.00;101831.47;5019637;28;20024;-56
2022/08/10 10:09:48;;;;;;;1.13;0.10;;;;;;;25.28;100.00;101830.31;5025516;28;20045;-51
2022/08/10 10:12:34;;;;;;;0.20;0.10;;;;;;;25.51;100.00;101831.88;5024372;28;20049;-52
2022/08/10 10:15:25;;;;;;;0.65;0.08;;;;;;;25.59;100.00;101834.13;5026364;28;20394;-53
2022/08/10 10:18:10;;;;;;;0.68;0.10;;;;;;;25.69;100.00;101828.75;5023141;28;20025;-55
2022/08/10 10:20:58;;;;;;;3.50;0.30;;;;;;;25.87;100.00;101819.41;5028089;28;20029;-50
2022/08/10 10:23:49;;;;;;;0.47;0.10;;;;;;;25.83;100.00;101820.97;5016218;28;20045;-57
2022/08/10 10:26:29;;;;;;;0.73;0.00;;;;;;;25.85;100.00;101818.84;5017714;28;20041;-57
2022/08/10 10:29:17;;;;;;;1.90;0.03;;;;;;;26.03;100.00;101807.56;5023732;28;20103;-56
2022/08/10 10:32:04;;;;;;;1.23;0.70;;;;;;;26.35;100.00;101803.91;5020090;28;20048;-54
2022/08/10 10:34:45;;;;;;;5.68;0.10;;;;;;;26.55;100.00;101811.38;5025179;28;20099;-51
2022/08/10 10:37:12;;;;;;;0.10;0.10;;;;;;;26.71;100.00;101804.06;5021632;28;20033;-53
2022/08/10 10:39:43;;;;;;;1.10;0.10;;;;;;;26.85;100.00;101805.22;5022060;28;20699;-50
2022/08/10 10:42:20;;;;;;;;;;;;;;;27.02;97.25;101802.25;5026787;28;20390;-57
2022/08/10 10:45:10;;;;;;;1.30;0.17;;;;;;;27.04;97.67;101804.72;5022512;28;19917;-57
2022/08/10 10:47:57;;;;;;;0.50;0.05;;;;;;;26.84;100.00;101800.84;5023635;28;20033;-53
2022/08/10 10:50:50;;;;;;;1.13;0.00;;;;;;;26.99;100.00;101797.34;5031201;28;20098;-56
2022/08/10 10:53:23;;;;;;;0.17;0.00;;;;;;;27.10;99.89;101790.81;5021672;28;20040;-55
2022/08/10 10:55:51;;;;;;;5.68;0.10;;;;;;;27.19;99.41;101785.69;5025338;28;20560;-55
2022/08/10 10:59:10;;;;;;;0.55;0.45;;;;;;;27.24;93.13;101779.44;5037183;28;20041;-57
2022/08/10 11:02:06;;;;;;;4.22;0.10;;;;;;;27.23;94.70;101783.25;5042085;28;20520;-53
2022/08/10 11:04:34;;;;;;;0.10;0.00;;;;;;;27.43;95.04;101775.06;5034301;28;20032;-56
2022/08/10 11:07:09;;;;;;;0.65;0.00;;;;;;;27.74;94.65;101769.59;5024995;28;20048;-52
2022/08/10 11:09:57;;;;;;;0.73;0.10;;;;;;;27.87;90.74;101765.50;5019719;28;20117;-56
2022/08/10 11:12:30;;;;;;;0.63;0.15;;;;;;;27.33;90.58;101759.56;5013528;28;20072;-54
2022/08/10 11:15:01;;;;;;;2.50;1.00;;;;;;;27.45;91.99;101767.47;5032537;28;20060;-54
2022/08/10 11:17:33;;;;;;;0.25;0.05;;;;;;;27.81;90.42;101759.25;5024460;28;20065;-55
2022/08/10 11:20:13;;;;;;;0.82;0.00;;;;;;;28.11;86.54;101766.50;5023419;28;20049;-55
2022/08/10 11:22:39;;;;;;;0.00;0.00;;;;;;;28.15;85.52;101764.06;5023161;28;20032;-52
2022/08/10 11:25:10;;;;;;;1.35;0.10;;;;;;;28.13;84.85;101761.59;5025584;28;20220;-59
2022/08/10 11:27:56;;;;;;;1.08;0.38;;;;;;;28.33;81.06;101760.72;5027591;28;20029;-57
2022/08/10 11:30:32;;;;;;;0.10;0.10;;;;;;;28.38;80.82;101749.78;5021674;28;20116;-57
2022/08/10 11:33:21;;;;;;;0.55;0.20;;;;;;;28.56;78.27;101753.81;5018808;28;20051;-57
2022/08/10 11:36:01;;;;;;;0.85;0.10;;;;;;;28.78;80.27;101753.38;5016752;28;20026;-58
2022/08/10 11:38:31;;;;;;;0.95;0.10;;;;;;;28.83;78.98;101747.09;5027091;28;20033;-56
2022/08/10 11:41:24;;;;;;;0.10;0.10;;;;;;;28.66;78.14;101742.03;5015420;28;20032;-56
2022/08/10 11:43:59;;;;;;;1.27;0.10;;;;;;;28.96;78.30;101737.44;5033619;28;20038;-57
2022/08/10 11:46:30;;;;;;;0.70;0.15;;;;;;;29.07;77.38;101733.59;5022584;28;20030;-54
2022/08/10 11:49:05;;;;;;;1.25;0.17;;;;;;;29.01;73.71;101740.13;5021967;28;20022;-57